Azamara Quest — V7DM6 — position and weather

sailwx.info

Track history (hours):
 
Tides and Currents Weather Stations Pressure Air Temp Water Temp Dewpoint Dewpoint Depression Visibility Wind Speed Wind Dir Waves Ship Positions

Azamara Quest

Last reported at 2018-Feb-18 11:45 UTC. Time now 2018-Feb-22 17:10 UTC.
Position N 37°40' W 009°54'.

Length 184 m; draft 11.6 m.

Type: Tanker. MMSI: 538005401.

Date/timePositionNaut miles runAvg speedWind from/ knotsBaromVisibWave heightAir tempDewpointWater temp
2018-Feb-18 11:45N 37°40' W 009°54'3712.4
2018-Feb-18 08:47N 38°15' W 010°04'412.5
2018-Feb-18 08:30N 38°19' W 010°06'612.4
2018-Feb-18 08:00N 38°25' W 010°07'612.4
2018-Feb-18 07:30N 38°31' W 010°09'612.4
2018-Feb-18 07:00N 38°37' W 010°11'612.3
2018-Feb-18 06:30N 38°43' W 010°12'612.1
2018-Feb-18 06:00N 38°49' W 010°12'611.8
2018-Feb-18 05:30N 38°55' W 010°12'612.0
2018-Feb-18 05:00N 39°01' W 010°12'812.1
2018-Feb-18 04:23N 39°08' W 010°12'  
2018-Feb-15 10:51N 49°49' W 003°22'411.7
2018-Feb-15 10:30N 49°51' W 003°16'611.4
2018-Feb-15 09:58N 49°54' W 003°08'510.7
2018-Feb-15 09:30N 49°57' W 003°01'510.0
2018-Feb-15 09:00N 49°59' W 002°55'5 9.5
2018-Feb-15 08:30N 50°00' W 002°47'4 8.8
2018-Feb-15 08:00N 50°01' W 002°41'5 8.5
2018-Feb-15 07:28N 50°03' W 002°34'23 8.9
2018-Feb-15 04:55N 50°08' W 001°60'410.8
2018-Feb-15 04:30N 50°10' W 001°53'611.7
2018-Feb-15 04:00N 50°11' W 001°44'612.5
2018-Feb-15 03:30N 50°13' W 001°35'713.3
2018-Feb-15 03:00N 50°15' W 001°25'3913.2
2018-Feb-15 00:02N 50°25' W 000°26'011.7
2018-Feb-15 00:00N 50°25' W 000°25'611.3
2018-Feb-14 23:30N 50°27' W 000°17'510.5
2018-Feb-14 23:00N 50°28' W 000°09'5 9.3
2018-Feb-14 22:30N 50°29' W 000°02'4 8.7
2018-Feb-14 22:00N 50°30' E 000°05'4 8.3
2018-Feb-14 21:30N 50°31' E 000°11'4 7.6
2018-Feb-14 21:00N 50°32' E 000°17'4 7.2
2018-Feb-14 20:30N 50°33' E 000°22'4 7.2
2018-Feb-14 20:00N 50°34' E 000°28'4 7.4
2018-Feb-14 19:30N 50°35' E 000°33'4 8.4
2018-Feb-14 19:00N 50°37' E 000°39'5 9.3
2018-Feb-14 18:30N 50°40' E 000°46'5 9.9
2018-Feb-14 18:00N 50°42' E 000°52'510.3
2018-Feb-14 17:30N 50°45' E 000°59'610.7
2018-Feb-14 16:58N 50°48' E 001°06'510.9
2018-Feb-14 16:30N 50°51' E 001°13'510.5
2018-Feb-14 16:00N 50°55' E 001°19'510.4
2018-Feb-14 15:30N 50°59' E 001°24'510.2
2018-Feb-14 15:00N 51°03' E 001°29'5 9.3
2018-Feb-14 14:30N 51°06' E 001°34'4 8.7
2018-Feb-14 14:00N 51°09' E 001°39'4 8.8
2018-Feb-14 13:30N 51°12' E 001°44'4 8.7
2018-Feb-14 13:00N 51°16' E 001°48'4 8.7
2018-Feb-14 12:30N 51°20' E 001°52'5 9.1
2018-Feb-14 12:00N 51°23' E 001°56'5 9.5
2018-Feb-14 11:30N 51°27' E 001°60'510.1
2018-Feb-14 11:00N 51°31' E 002°05'510.5
2018-Feb-14 10:30N 51°35' E 002°10'610.8
2018-Feb-14 09:58N 51°40' E 002°17'511.3
2018-Feb-14 09:30N 51°44' E 002°22'46510.0
2018-Feb-12 10:55N 57°50' E 010°39'4 9.6
2018-Feb-12 10:30N 57°48' E 010°46'5 9.8
2018-Feb-12 10:00N 57°45' E 010°53'4 8.5
2018-Feb-12 09:30N 57°42' E 010°58'611.9
2018-Feb-12 09:00N 57°38' E 011°06'612.3
2018-Feb-12 08:30N 57°34' E 011°15'611.9
2018-Feb-12 08:00N 57°30' E 011°23'612.5
2018-Feb-12 07:30N 57°24' E 011°29'612.5
2018-Feb-12 07:00N 57°19' E 011°33'612.5
2018-Feb-12 06:30N 57°13' E 011°36'611.9
2018-Feb-12 06:00N 57°07' E 011°40'611.8
2018-Feb-12 05:30N 57°01' E 011°44'10511.8
2018-Feb-11 20:36N 55°19' E 011°03'113.9
2018-Feb-11 20:30N 55°17' E 011°03'612.1
2018-Feb-11 20:00N 55°11' E 011°05'612.6
2018-Feb-11 19:30N 55°06' E 010°60'713.6
2018-Feb-11 19:00N 54°59' E 010°58'714.4
2018-Feb-11 18:30N 54°53' E 010°51'714.7
2018-Feb-11 18:00N 54°46' E 010°48'612.2
2018-Feb-11 17:31N 54°40' E 010°49'713.2
2018-Feb-11 17:00N 54°37' E 010°58'612.4
2018-Feb-11 16:31N 54°36' E 011°09'713.3
2018-Feb-11 16:00N 54°33' E 011°20'612.1
2018-Feb-11 15:31N 54°31' E 011°29'612.2
2018-Feb-11 15:00N 54°28' E 011°39'611.9
2018-Feb-11 14:30N 54°27' E 011°48'611.8
2018-Feb-11 14:00N 54°26' E 011°58'611.9
2018-Feb-11 13:30N 54°27' E 012°09'7511.0
2018-Feb-11 06:40N 55°04' E 014°02'411.3
2018-Feb-11 06:18N 55°07' E 014°07'1111.7
2018-Feb-11 05:22N 55°15' E 014°19'512.0
2018-Feb-11 04:55N 55°19' E 014°25'512.1
2018-Feb-11 04:28N 55°24' E 014°31'511.8
2018-Feb-11 04:00N 55°27' E 014°39'612.3
2018-Feb-11 03:30N 55°30' E 014°48'612.3
2018-Feb-11 02:59N 55°33' E 014°58'612.2
2018-Feb-11 02:30N 55°35' E 015°08'612.1
2018-Feb-11 02:01N 55°37' E 015°18'612.0
2018-Feb-11 01:30N 55°39' E 015°28'611.8
2018-Feb-11 01:01N 55°40' E 015°38'612.0
2018-Feb-11 00:31N 55°42' E 015°48'612.2
2018-Feb-11 00:00N 55°44' E 015°59'612.2
2018-Feb-10 23:31N 55°45' E 016°09'612.3
2018-Feb-10 23:01N 55°47' E 016°20'612.2
2018-Feb-10 22:31N 55°48' E 016°30'612.2
2018-Feb-10 22:00N 55°50' E 016°41'30411.5
2018-Feb-09 19:31N 59°35' E 023°02'612.0
2018-Feb-09 19:01N 59°37' E 023°13'612.2
2018-Feb-09 18:31N 59°39' E 023°25'612.3
2018-Feb-09 18:01N 59°40' E 023°37'611.9
2018-Feb-09 17:31N 59°42' E 023°48'1212.4
2018-Feb-09 16:31N 59°46' E 024°11'1212.5
2018-Feb-09 15:30N 59°49' E 024°36'612.2
2018-Feb-09 15:01N 59°50' E 024°48'1812.0
2018-Feb-09 13:31N 59°56' E 025°21'  
Track history (hours):
 
Tides and Currents Weather Stations Pressure Air Temp Water Temp Dewpoint Dewpoint Depression Visibility Wind Speed Wind Dir Waves Ship Positions

Azamara Quest

Last reported at 2018-Feb-18 11:45 UTC. Time now 2018-Feb-22 17:10 UTC.
Position N 37°40' W 009°54'.

Length 184 m; draft 11.6 m.

Type: Tanker. MMSI: 538005401.

Date/timePositionNaut miles runAvg speedWind from/ knotsBaromVisibWave heightAir tempDewpointWater temp
2018-Feb-18 11:45N 37°40' W 009°54'3712.4
2018-Feb-18 08:47N 38°15' W 010°04'412.5
2018-Feb-18 08:30N 38°19' W 010°06'612.4
2018-Feb-18 08:00N 38°25' W 010°07'612.4
2018-Feb-18 07:30N 38°31' W 010°09'612.4
2018-Feb-18 07:00N 38°37' W 010°11'612.3
2018-Feb-18 06:30N 38°43' W 010°12'612.1
2018-Feb-18 06:00N 38°49' W 010°12'611.8
2018-Feb-18 05:30N 38°55' W 010°12'612.0
2018-Feb-18 05:00N 39°01' W 010°12'812.1
2018-Feb-18 04:23N 39°08' W 010°12'  
2018-Feb-15 10:51N 49°49' W 003°22'411.7
2018-Feb-15 10:30N 49°51' W 003°16'611.4
2018-Feb-15 09:58N 49°54' W 003°08'510.7
2018-Feb-15 09:30N 49°57' W 003°01'510.0
2018-Feb-15 09:00N 49°59' W 002°55'5 9.5
2018-Feb-15 08:30N 50°00' W 002°47'4 8.8
2018-Feb-15 08:00N 50°01' W 002°41'5 8.5
2018-Feb-15 07:28N 50°03' W 002°34'23 8.9
2018-Feb-15 04:55N 50°08' W 001°60'410.8
2018-Feb-15 04:30N 50°10' W 001°53'611.7
2018-Feb-15 04:00N 50°11' W 001°44'612.5
2018-Feb-15 03:30N 50°13' W 001°35'713.3
2018-Feb-15 03:00N 50°15' W 001°25'3913.2
2018-Feb-15 00:02N 50°25' W 000°26'011.7
2018-Feb-15 00:00N 50°25' W 000°25'611.3
2018-Feb-14 23:30N 50°27' W 000°17'510.5
2018-Feb-14 23:00N 50°28' W 000°09'5 9.3
2018-Feb-14 22:30N 50°29' W 000°02'4 8.7
2018-Feb-14 22:00N 50°30' E 000°05'4 8.3
2018-Feb-14 21:30N 50°31' E 000°11'4 7.6
2018-Feb-14 21:00N 50°32' E 000°17'4 7.2
2018-Feb-14 20:30N 50°33' E 000°22'4 7.2
2018-Feb-14 20:00N 50°34' E 000°28'4 7.4
2018-Feb-14 19:30N 50°35' E 000°33'4 8.4
2018-Feb-14 19:00N 50°37' E 000°39'5 9.3
2018-Feb-14 18:30N 50°40' E 000°46'5 9.9
2018-Feb-14 18:00N 50°42' E 000°52'510.3
2018-Feb-14 17:30N 50°45' E 000°59'610.7
2018-Feb-14 16:58N 50°48' E 001°06'510.9
2018-Feb-14 16:30N 50°51' E 001°13'510.5
2018-Feb-14 16:00N 50°55' E 001°19'510.4
2018-Feb-14 15:30N 50°59' E 001°24'510.2
2018-Feb-14 15:00N 51°03' E 001°29'5 9.3
2018-Feb-14 14:30N 51°06' E 001°34'4 8.7
2018-Feb-14 14:00N 51°09' E 001°39'4 8.8
2018-Feb-14 13:30N 51°12' E 001°44'4 8.7
2018-Feb-14 13:00N 51°16' E 001°48'4 8.7
2018-Feb-14 12:30N 51°20' E 001°52'5 9.1
2018-Feb-14 12:00N 51°23' E 001°56'5 9.5
2018-Feb-14 11:30N 51°27' E 001°60'510.1
2018-Feb-14 11:00N 51°31' E 002°05'510.5
2018-Feb-14 10:30N 51°35' E 002°10'610.8
2018-Feb-14 09:58N 51°40' E 002°17'511.3
2018-Feb-14 09:30N 51°44' E 002°22'46510.0
2018-Feb-12 10:55N 57°50' E 010°39'4 9.6
2018-Feb-12 10:30N 57°48' E 010°46'5 9.8
2018-Feb-12 10:00N 57°45' E 010°53'4 8.5
2018-Feb-12 09:30N 57°42' E 010°58'611.9
2018-Feb-12 09:00N 57°38' E 011°06'612.3
2018-Feb-12 08:30N 57°34' E 011°15'611.9
2018-Feb-12 08:00N 57°30' E 011°23'612.5
2018-Feb-12 07:30N 57°24' E 011°29'612.5
2018-Feb-12 07:00N 57°19' E 011°33'612.5
2018-Feb-12 06:30N 57°13' E 011°36'611.9
2018-Feb-12 06:00N 57°07' E 011°40'611.8
2018-Feb-12 05:30N 57°01' E 011°44'10511.8
2018-Feb-11 20:36N 55°19' E 011°03'113.9
2018-Feb-11 20:30N 55°17' E 011°03'612.1
2018-Feb-11 20:00N 55°11' E 011°05'612.6
2018-Feb-11 19:30N 55°06' E 010°60'713.6
2018-Feb-11 19:00N 54°59' E 010°58'714.4
2018-Feb-11 18:30N 54°53' E 010°51'714.7
2018-Feb-11 18:00N 54°46' E 010°48'612.2
2018-Feb-11 17:31N 54°40' E 010°49'713.2
2018-Feb-11 17:00N 54°37' E 010°58'612.4
2018-Feb-11 16:31N 54°36' E 011°09'713.3
2018-Feb-11 16:00N 54°33' E 011°20'612.1
2018-Feb-11 15:31N 54°31' E 011°29'612.2
2018-Feb-11 15:00N 54°28' E 011°39'611.9
2018-Feb-11 14:30N 54°27' E 011°48'611.8
2018-Feb-11 14:00N 54°26' E 011°58'611.9
2018-Feb-11 13:30N 54°27' E 012°09'7511.0
2018-Feb-11 06:40N 55°04' E 014°02'411.3
2018-Feb-11 06:18N 55°07' E 014°07'1111.7
2018-Feb-11 05:22N 55°15' E 014°19'512.0
2018-Feb-11 04:55N 55°19' E 014°25'512.1
2018-Feb-11 04:28N 55°24' E 014°31'511.8
2018-Feb-11 04:00N 55°27' E 014°39'612.3
2018-Feb-11 03:30N 55°30' E 014°48'612.3
2018-Feb-11 02:59N 55°33' E 014°58'612.2
2018-Feb-11 02:30N 55°35' E 015°08'612.1
2018-Feb-11 02:01N 55°37' E 015°18'612.0
2018-Feb-11 01:30N 55°39' E 015°28'611.8
2018-Feb-11 01:01N 55°40' E 015°38'612.0
2018-Feb-11 00:31N 55°42' E 015°48'612.2
2018-Feb-11 00:00N 55°44' E 015°59'612.2
2018-Feb-10 23:31N 55°45' E 016°09'612.3
2018-Feb-10 23:01N 55°47' E 016°20'612.2
2018-Feb-10 22:31N 55°48' E 016°30'612.2
2018-Feb-10 22:00N 55°50' E 016°41'30411.5
2018-Feb-09 19:31N 59°35' E 023°02'612.0
2018-Feb-09 19:01N 59°37' E 023°13'612.2
2018-Feb-09 18:31N 59°39' E 023°25'612.3
2018-Feb-09 18:01N 59°40' E 023°37'611.9
2018-Feb-09 17:31N 59°42' E 023°48'1212.4
2018-Feb-09 16:31N 59°46' E 024°11'1212.5
2018-Feb-09 15:30N 59°49' E 024°36'612.2
2018-Feb-09 15:01N 59°50' E 024°48'1812.0
2018-Feb-09 13:31N 59°56' E 025°21'  

Dump ship's entire track history